sensor_id;sensor_type;location;lat;lon;timestamp;P1;durP1;ratioP1;P2;durP2;ratioP2
67108;SDS011;54027;50.786;7.058;2024-02-16T00:01:34;2.97;;;1.90;;
67108;SDS011;54027;50.786;7.058;2024-02-16T00:04:01;4.38;;;2.08;;
67108;SDS011;54027;50.786;7.058;2024-02-16T00:06:26;2.67;;;1.58;;
67108;SDS011;54027;50.786;7.058;2024-02-16T00:08:52;5.32;;;2.00;;
67108;SDS011;54027;50.786;7.058;2024-02-16T00:11:17;4.38;;;1.67;;
67108;SDS011;54027;50.786;7.058;2024-02-16T00:13:42;5.97;;;1.63;;
67108;SDS011;54027;50.786;7.058;2024-02-16T00:16:08;4.47;;;1.98;;
67108;SDS011;54027;50.786;7.058;2024-02-16T00:18:34;5.50;;;1.73;;
67108;SDS011;54027;50.786;7.058;2024-02-16T00:20:59;5.78;;;1.90;;
67108;SDS011;54027;50.786;7.058;2024-02-16T00:23:26;2.63;;;1.70;;
67108;SDS011;54027;50.786;7.058;2024-02-16T00:25:52;3.10;;;1.60;;
67108;SDS011;54027;50.786;7.058;2024-02-16T00:28:18;2.33;;;1.30;;
67108;SDS011;54027;50.786;7.058;2024-02-16T00:30:43;3.33;;;1.50;;
67108;SDS011;54027;50.786;7.058;2024-02-16T00:33:09;2.75;;;1.60;;
67108;SDS011;54027;50.786;7.058;2024-02-16T00:35:34;6.95;;;1.60;;
67108;SDS011;54027;50.786;7.058;2024-02-16T00:38:00;4.55;;;1.77;;
67108;SDS011;54027;50.786;7.058;2024-02-16T00:40:25;3.78;;;1.80;;
67108;SDS011;54027;50.786;7.058;2024-02-16T00:42:54;4.32;;;1.50;;
67108;SDS011;54027;50.786;7.058;2024-02-16T00:45:20;3.70;;;1.67;;
67108;SDS011;54027;50.786;7.058;2024-02-16T00:47:45;3.38;;;1.58;;
67108;SDS011;54027;50.786;7.058;2024-02-16T00:50:11;4.80;;;1.30;;
67108;SDS011;54027;50.786;7.058;2024-02-16T00:52:36;5.07;;;1.25;;
67108;SDS011;54027;50.786;7.058;2024-02-16T00:55:03;4.18;;;1.90;;
67108;SDS011;54027;50.786;7.058;2024-02-16T00:57:29;2.92;;;1.58;;
67108;SDS011;54027;50.786;7.058;2024-02-16T00:59:55;3.90;;;1.58;;
67108;SDS011;54027;50.786;7.058;2024-02-16T01:02:20;6.78;;;2.13;;
67108;SDS011;54027;50.786;7.058;2024-02-16T01:04:47;4.22;;;1.42;;
67108;SDS011;54027;50.786;7.058;2024-02-16T01:07:15;2.25;;;1.33;;
67108;SDS011;54027;50.786;7.058;2024-02-16T01:09:40;5.68;;;1.40;;
67108;SDS011;54027;50.786;7.058;2024-02-16T01:12:06;4.85;;;1.35;;
67108;SDS011;54027;50.786;7.058;2024-02-16T01:14:31;2.38;;;1.45;;
67108;SDS011;54027;50.786;7.058;2024-02-16T01:16:56;4.35;;;1.48;;
67108;SDS011;54027;50.786;7.058;2024-02-16T01:19:22;4.60;;;1.50;;
67108;SDS011;54027;50.786;7.058;2024-02-16T01:21:47;5.22;;;1.90;;
67108;SDS011;54027;50.786;7.058;2024-02-16T01:24:17;3.53;;;1.35;;
67108;SDS011;54027;50.786;7.058;2024-02-16T01:26:42;2.17;;;1.40;;
67108;SDS011;54027;50.786;7.058;2024-02-16T01:29:07;4.50;;;1.65;;
67108;SDS011;54027;50.786;7.058;2024-02-16T01:31:33;3.15;;;1.55;;
67108;SDS011;54027;50.786;7.058;2024-02-16T01:33:58;7.63;;;1.60;;
67108;SDS011;54027;50.786;7.058;2024-02-16T01:36:23;3.15;;;1.50;;
67108;SDS011;54027;50.786;7.058;2024-02-16T01:38:49;4.57;;;1.45;;
67108;SDS011;54027;50.786;7.058;2024-02-16T01:41:14;3.45;;;1.40;;
67108;SDS011;54027;50.786;7.058;2024-02-16T01:43:40;2.33;;;1.20;;
67108;SDS011;54027;50.786;7.058;2024-02-16T01:46:05;3.85;;;1.40;;
67108;SDS011;54027;50.786;7.058;2024-02-16T01:48:31;3.53;;;1.60;;
67108;SDS011;54027;50.786;7.058;2024-02-16T01:50:57;4.53;;;1.80;;
67108;SDS011;54027;50.786;7.058;2024-02-16T01:53:22;6.68;;;2.25;;
67108;SDS011;54027;50.786;7.058;2024-02-16T01:55:48;2.95;;;1.42;;
67108;SDS011;54027;50.786;7.058;2024-02-16T01:58:14;2.97;;;1.60;;
67108;SDS011;54027;50.786;7.058;2024-02-16T02:00:40;7.72;;;1.83;;
67108;SDS011;54027;50.786;7.058;2024-02-16T02:03:08;4.38;;;1.85;;
67108;SDS011;54027;50.786;7.058;2024-02-16T02:05:34;6.40;;;2.13;;
67108;SDS011;54027;50.786;7.058;2024-02-16T02:08:10;6.95;;;2.20;;
67108;SDS011;54027;50.786;7.058;2024-02-16T02:10:35;4.68;;;2.05;;
67108;SDS011;54027;50.786;7.058;2024-02-16T02:13:01;3.38;;;1.65;;
67108;SDS011;54027;50.786;7.058;2024-02-16T02:15:27;3.90;;;1.90;;
67108;SDS011;54027;50.786;7.058;2024-02-16T02:17:52;3.92;;;1.80;;
67108;SDS011;54027;50.786;7.058;2024-02-16T02:20:18;3.80;;;1.88;;
67108;SDS011;54027;50.786;7.058;2024-02-16T02:22:43;5.03;;;1.80;;
67108;SDS011;54027;50.786;7.058;2024-02-16T02:25:09;5.82;;;2.03;;
67108;SDS011;54027;50.786;7.058;2024-02-16T02:27:35;4.35;;;1.65;;
67108;SDS011;54027;50.786;7.058;2024-02-16T02:30:01;4.32;;;1.70;;
67108;SDS011;54027;50.786;7.058;2024-02-16T02:32:27;6.85;;;2.28;;
67108;SDS011;54027;50.786;7.058;2024-02-16T02:34:53;4.50;;;1.90;;
67108;SDS011;54027;50.786;7.058;2024-02-16T02:37:19;5.20;;;2.05;;
67108;SDS011;54027;50.786;7.058;2024-02-16T02:39:44;4.03;;;1.92;;
67108;SDS011;54027;50.786;7.058;2024-02-16T02:42:09;6.32;;;2.35;;
67108;SDS011;54027;50.786;7.058;2024-02-16T02:44:35;4.60;;;1.90;;
67108;SDS011;54027;50.786;7.058;2024-02-16T02:47:00;3.38;;;1.95;;
67108;SDS011;54027;50.786;7.058;2024-02-16T02:49:26;5.18;;;1.88;;
67108;SDS011;54027;50.786;7.058;2024-02-16T02:51:51;3.15;;;2.00;;
67108;SDS011;54027;50.786;7.058;2024-02-16T02:54:17;5.30;;;1.95;;
67108;SDS011;54027;50.786;7.058;2024-02-16T02:56:43;4.25;;;2.03;;
67108;SDS011;54027;50.786;7.058;2024-02-16T02:59:08;5.05;;;1.63;;
67108;SDS011;54027;50.786;7.058;2024-02-16T03:01:35;2.85;;;1.55;;
67108;SDS011;54027;50.786;7.058;2024-02-16T03:04:01;4.55;;;1.90;;
67108;SDS011;54027;50.786;7.058;2024-02-16T03:06:27;3.88;;;1.42;;
67108;SDS011;54027;50.786;7.058;2024-02-16T03:08:53;3.80;;;2.03;;
67108;SDS011;54027;50.786;7.058;2024-02-16T03:11:18;5.25;;;1.98;;
67108;SDS011;54027;50.786;7.058;2024-02-16T03:13:43;4.20;;;1.85;;
67108;SDS011;54027;50.786;7.058;2024-02-16T03:16:09;5.00;;;1.95;;
67108;SDS011;54027;50.786;7.058;2024-02-16T03:18:34;4.68;;;1.88;;
67108;SDS011;54027;50.786;7.058;2024-02-16T03:21:00;2.85;;;1.70;;
67108;SDS011;54027;50.786;7.058;2024-02-16T03:23:25;5.68;;;2.28;;
67108;SDS011;54027;50.786;7.058;2024-02-16T03:25:51;3.08;;;1.63;;
67108;SDS011;54027;50.786;7.058;2024-02-16T03:28:16;4.88;;;1.95;;
67108;SDS011;54027;50.786;7.058;2024-02-16T03:30:42;3.20;;;1.75;;
67108;SDS011;54027;50.786;7.058;2024-02-16T03:33:08;4.15;;;2.05;;
67108;SDS011;54027;50.786;7.058;2024-02-16T03:35:34;4.70;;;2.03;;
67108;SDS011;54027;50.786;7.058;2024-02-16T03:37:59;3.42;;;1.70;;
67108;SDS011;54027;50.786;7.058;2024-02-16T03:40:25;3.88;;;1.88;;
67108;SDS011;54027;50.786;7.058;2024-02-16T03:42:53;4.07;;;2.08;;
67108;SDS011;54027;50.786;7.058;2024-02-16T03:45:19;6.55;;;2.17;;
67108;SDS011;54027;50.786;7.058;2024-02-16T03:47:44;3.85;;;2.15;;
67108;SDS011;54027;50.786;7.058;2024-02-16T03:50:10;5.85;;;2.33;;
67108;SDS011;54027;50.786;7.058;2024-02-16T03:52:36;5.97;;;2.00;;
67108;SDS011;54027;50.786;7.058;2024-02-16T03:55:02;5.80;;;2.00;;
67108;SDS011;54027;50.786;7.058;2024-02-16T03:57:28;7.18;;;2.70;;
67108;SDS011;54027;50.786;7.058;2024-02-16T03:59:55;4.72;;;2.47;;
67108;SDS011;54027;50.786;7.058;2024-02-16T04:02:20;2.60;;;1.80;;
67108;SDS011;54027;50.786;7.058;2024-02-16T04:04:45;4.18;;;2.45;;
67108;SDS011;54027;50.786;7.058;2024-02-16T04:07:11;8.10;;;2.70;;
67108;SDS011;54027;50.786;7.058;2024-02-16T04:09:37;3.00;;;1.88;;
67108;SDS011;54027;50.786;7.058;2024-02-16T04:12:02;5.60;;;2.20;;
67108;SDS011;54027;50.786;7.058;2024-02-16T04:14:29;3.55;;;1.95;;
67108;SDS011;54027;50.786;7.058;2024-02-16T04:16:55;5.90;;;2.22;;
67108;SDS011;54027;50.786;7.058;2024-02-16T04:19:23;6.18;;;2.22;;
67108;SDS011;54027;50.786;7.058;2024-02-16T04:21:49;5.40;;;2.13;;
67108;SDS011;54027;50.786;7.058;2024-02-16T04:24:15;4.57;;;2.22;;
67108;SDS011;54027;50.786;7.058;2024-02-16T04:26:41;10.30;;;2.55;;
67108;SDS011;54027;50.786;7.058;2024-02-16T04:29:06;3.58;;;1.88;;
67108;SDS011;54027;50.786;7.058;2024-02-16T04:31:31;3.85;;;2.22;;
67108;SDS011;54027;50.786;7.058;2024-02-16T04:33:57;3.67;;;1.95;;
67108;SDS011;54027;50.786;7.058;2024-02-16T04:36:22;4.97;;;1.90;;
67108;SDS011;54027;50.786;7.058;2024-02-16T04:38:47;3.90;;;1.98;;
67108;SDS011;54027;50.786;7.058;2024-02-16T04:41:13;5.18;;;2.20;;
67108;SDS011;54027;50.786;7.058;2024-02-16T04:43:38;3.38;;;1.70;;
67108;SDS011;54027;50.786;7.058;2024-02-16T04:46:04;4.72;;;2.00;;
67108;SDS011;54027;50.786;7.058;2024-02-16T04:48:30;8.52;;;2.22;;
67108;SDS011;54027;50.786;7.058;2024-02-16T04:50:56;5.07;;;2.20;;
67108;SDS011;54027;50.786;7.058;2024-02-16T04:53:21;3.70;;;2.20;;
67108;SDS011;54027;50.786;7.058;2024-02-16T04:55:47;5.00;;;2.38;;
67108;SDS011;54027;50.786;7.058;2024-02-16T04:58:12;8.85;;;2.38;;
67108;SDS011;54027;50.786;7.058;2024-02-16T05:00:38;6.40;;;2.03;;
67108;SDS011;54027;50.786;7.058;2024-02-16T05:03:03;3.67;;;1.98;;
67108;SDS011;54027;50.786;7.058;2024-02-16T05:05:29;3.83;;;2.08;;
67108;SDS011;54027;50.786;7.058;2024-02-16T05:07:55;3.78;;;2.08;;
67108;SDS011;54027;50.786;7.058;2024-02-16T05:10:22;5.45;;;2.22;;
67108;SDS011;54027;50.786;7.058;2024-02-16T05:12:47;3.67;;;1.90;;
67108;SDS011;54027;50.786;7.058;2024-02-16T05:15:13;4.15;;;2.00;;
67108;SDS011;54027;50.786;7.058;2024-02-16T05:17:38;2.58;;;2.00;;
67108;SDS011;54027;50.786;7.058;2024-02-16T05:20:09;4.65;;;2.05;;
67108;SDS011;54027;50.786;7.058;2024-02-16T05:25:05;4.50;;;2.28;;
67108;SDS011;54027;50.786;7.058;2024-02-16T05:27:31;4.93;;;2.35;;
67108;SDS011;54027;50.786;7.058;2024-02-16T05:29:56;3.40;;;1.83;;
67108;SDS011;54027;50.786;7.058;2024-02-16T05:32:21;4.90;;;2.15;;
67108;SDS011;54027;50.786;7.058;2024-02-16T05:34:47;4.50;;;2.33;;
67108;SDS011;54027;50.786;7.058;2024-02-16T05:37:12;5.35;;;2.47;;
67108;SDS011;54027;50.786;7.058;2024-02-16T05:39:40;4.25;;;2.08;;
67108;SDS011;54027;50.786;7.058;2024-02-16T05:42:19;5.55;;;2.00;;
67108;SDS011;54027;50.786;7.058;2024-02-16T05:44:47;3.35;;;1.80;;
67108;SDS011;54027;50.786;7.058;2024-02-16T05:47:12;3.70;;;2.10;;
67108;SDS011;54027;50.786;7.058;2024-02-16T05:49:38;5.32;;;2.50;;
67108;SDS011;54027;50.786;7.058;2024-02-16T05:52:04;7.30;;;2.38;;
67108;SDS011;54027;50.786;7.058;2024-02-16T05:54:43;4.78;;;2.10;;
67108;SDS011;54027;50.786;7.058;2024-02-16T05:57:09;7.72;;;4.32;;
67108;SDS011;54027;50.786;7.058;2024-02-16T05:59:35;5.45;;;2.40;;
67108;SDS011;54027;50.786;7.058;2024-02-16T06:02:00;7.72;;;2.50;;
67108;SDS011;54027;50.786;7.058;2024-02-16T06:04:25;7.93;;;2.40;;
67108;SDS011;54027;50.786;7.058;2024-02-16T06:06:51;4.95;;;2.08;;
67108;SDS011;54027;50.786;7.058;2024-02-16T06:09:18;4.82;;;2.40;;
67108;SDS011;54027;50.786;7.058;2024-02-16T06:11:44;3.95;;;2.38;;
67108;SDS011;54027;50.786;7.058;2024-02-16T06:14:09;4.70;;;2.47;;
67108;SDS011;54027;50.786;7.058;2024-02-16T06:16:35;3.28;;;1.98;;
67108;SDS011;54027;50.786;7.058;2024-02-16T06:19:00;6.88;;;2.47;;
67108;SDS011;54027;50.786;7.058;2024-02-16T06:21:26;4.90;;;2.30;;
67108;SDS011;54027;50.786;7.058;2024-02-16T06:23:51;10.10;;;2.38;;
67108;SDS011;54027;50.786;7.058;2024-02-16T06:26:16;4.45;;;2.17;;
67108;SDS011;54027;50.786;7.058;2024-02-16T06:28:42;3.05;;;2.20;;
67108;SDS011;54027;50.786;7.058;2024-02-16T06:31:07;6.93;;;2.78;;
67108;SDS011;54027;50.786;7.058;2024-02-16T06:33:32;3.55;;;2.60;;
67108;SDS011;54027;50.786;7.058;2024-02-16T06:35:58;6.05;;;2.92;;
67108;SDS011;54027;50.786;7.058;2024-02-16T06:38:23;6.03;;;2.45;;
67108;SDS011;54027;50.786;7.058;2024-02-16T06:40:49;4.32;;;2.25;;
67108;SDS011;54027;50.786;7.058;2024-02-16T06:43:14;5.72;;;2.90;;
67108;SDS011;54027;50.786;7.058;2024-02-16T06:45:39;5.35;;;1.92;;
67108;SDS011;54027;50.786;7.058;2024-02-16T06:48:05;4.57;;;2.42;;
67108;SDS011;54027;50.786;7.058;2024-02-16T06:50:31;4.43;;;2.08;;
67108;SDS011;54027;50.786;7.058;2024-02-16T06:52:56;4.18;;;2.25;;
67108;SDS011;54027;50.786;7.058;2024-02-16T06:55:21;3.83;;;2.00;;
67108;SDS011;54027;50.786;7.058;2024-02-16T06:57:47;7.25;;;2.03;;
67108;SDS011;54027;50.786;7.058;2024-02-16T07:00:13;8.48;;;2.58;;
67108;SDS011;54027;50.786;7.058;2024-02-16T07:02:40;6.97;;;2.67;;
67108;SDS011;54027;50.786;7.058;2024-02-16T07:05:07;6.00;;;2.65;;
67108;SDS011;54027;50.786;7.058;2024-02-16T07:07:33;7.03;;;2.08;;
67108;SDS011;54027;50.786;7.058;2024-02-16T07:10:01;4.95;;;2.30;;
67108;SDS011;54027;50.786;7.058;2024-02-16T07:12:26;4.68;;;2.42;;
67108;SDS011;54027;50.786;7.058;2024-02-16T07:14:52;6.32;;;2.58;;
67108;SDS011;54027;50.786;7.058;2024-02-16T07:17:17;3.78;;;2.17;;
67108;SDS011;54027;50.786;7.058;2024-02-16T07:19:43;2.55;;;1.48;;
67108;SDS011;54027;50.786;7.058;2024-02-16T07:22:08;4.47;;;1.90;;
67108;SDS011;54027;50.786;7.058;2024-02-16T07:24:35;8.57;;;2.78;;
67108;SDS011;54027;50.786;7.058;2024-02-16T07:27:00;5.25;;;2.90;;
67108;SDS011;54027;50.786;7.058;2024-02-16T07:29:26;4.85;;;2.22;;
67108;SDS011;54027;50.786;7.058;2024-02-16T07:31:52;5.82;;;2.05;;
67108;SDS011;54027;50.786;7.058;2024-02-16T07:34:18;4.18;;;2.30;;
67108;SDS011;54027;50.786;7.058;2024-02-16T07:36:44;4.57;;;2.22;;
67108;SDS011;54027;50.786;7.058;2024-02-16T07:39:10;8.70;;;2.08;;
67108;SDS011;54027;50.786;7.058;2024-02-16T07:41:37;10.35;;;2.35;;
67108;SDS011;54027;50.786;7.058;2024-02-16T07:44:02;3.58;;;2.00;;
67108;SDS011;54027;50.786;7.058;2024-02-16T07:46:29;4.03;;;2.35;;
67108;SDS011;54027;50.786;7.058;2024-02-16T07:48:54;5.30;;;2.20;;
67108;SDS011;54027;50.786;7.058;2024-02-16T07:51:19;4.72;;;2.00;;
67108;SDS011;54027;50.786;7.058;2024-02-16T07:53:45;5.95;;;2.70;;
67108;SDS011;54027;50.786;7.058;2024-02-16T07:56:11;3.10;;;1.90;;
67108;SDS011;54027;50.786;7.058;2024-02-16T07:58:37;4.85;;;1.98;;
67108;SDS011;54027;50.786;7.058;2024-02-16T08:01:02;4.38;;;2.00;;
67108;SDS011;54027;50.786;7.058;2024-02-16T08:03:28;6.97;;;2.10;;
67108;SDS011;54027;50.786;7.058;2024-02-16T08:05:54;3.65;;;2.17;;
67108;SDS011;54027;50.786;7.058;2024-02-16T08:08:21;3.15;;;1.67;;
67108;SDS011;54027;50.786;7.058;2024-02-16T08:10:48;4.47;;;2.28;;
67108;SDS011;54027;50.786;7.058;2024-02-16T08:13:13;5.38;;;1.85;;
67108;SDS011;54027;50.786;7.058;2024-02-16T08:15:38;4.20;;;2.38;;
67108;SDS011;54027;50.786;7.058;2024-02-16T08:18:04;6.55;;;2.28;;
67108;SDS011;54027;50.786;7.058;2024-02-16T08:20:30;6.40;;;2.45;;
67108;SDS011;54027;50.786;7.058;2024-02-16T08:22:56;6.00;;;2.35;;
67108;SDS011;54027;50.786;7.058;2024-02-16T08:25:22;4.88;;;2.38;;
67108;SDS011;54027;50.786;7.058;2024-02-16T08:27:48;5.32;;;2.42;;
67108;SDS011;54027;50.786;7.058;2024-02-16T08:30:14;4.15;;;2.05;;
67108;SDS011;54027;50.786;7.058;2024-02-16T08:32:40;6.65;;;2.78;;
67108;SDS011;54027;50.786;7.058;2024-02-16T08:35:05;6.90;;;2.45;;
67108;SDS011;54027;50.786;7.058;2024-02-16T08:37:31;6.00;;;2.38;;
67108;SDS011;54027;50.786;7.058;2024-02-16T08:39:57;8.55;;;2.97;;
67108;SDS011;54027;50.786;7.058;2024-02-16T08:42:22;4.18;;;2.58;;
67108;SDS011;54027;50.786;7.058;2024-02-16T08:44:48;3.97;;;2.47;;
67108;SDS011;54027;50.786;7.058;2024-02-16T08:47:14;6.00;;;2.05;;
67108;SDS011;54027;50.786;7.058;2024-02-16T08:49:40;6.85;;;2.00;;
67108;SDS011;54027;50.786;7.058;2024-02-16T08:52:07;4.43;;;2.65;;
67108;SDS011;54027;50.786;7.058;2024-02-16T08:54:33;5.55;;;2.00;;
67108;SDS011;54027;50.786;7.058;2024-02-16T08:56:59;7.10;;;3.13;;
67108;SDS011;54027;50.786;7.058;2024-02-16T08:59:24;4.47;;;2.47;;
67108;SDS011;54027;50.786;7.058;2024-02-16T09:01:50;7.00;;;2.05;;
67108;SDS011;54027;50.786;7.058;2024-02-16T09:04:15;6.30;;;2.28;;
67108;SDS011;54027;50.786;7.058;2024-02-16T09:06:41;5.55;;;2.65;;
67108;SDS011;54027;50.786;7.058;2024-02-16T09:09:07;4.50;;;2.50;;
67108;SDS011;54027;50.786;7.058;2024-02-16T09:11:32;5.05;;;2.80;;
67108;SDS011;54027;50.786;7.058;2024-02-16T09:13:59;4.88;;;2.75;;
67108;SDS011;54027;50.786;7.058;2024-02-16T09:16:24;5.13;;;2.55;;
67108;SDS011;54027;50.786;7.058;2024-02-16T09:18:50;3.38;;;2.30;;
67108;SDS011;54027;50.786;7.058;2024-02-16T09:21:15;6.70;;;2.65;;
67108;SDS011;54027;50.786;7.058;2024-02-16T09:23:41;6.25;;;2.88;;
67108;SDS011;54027;50.786;7.058;2024-02-16T09:26:06;9.40;;;2.47;;
67108;SDS011;54027;50.786;7.058;2024-02-16T09:28:38;6.45;;;2.78;;
67108;SDS011;54027;50.786;7.058;2024-02-16T09:31:05;6.07;;;2.75;;
67108;SDS011;54027;50.786;7.058;2024-02-16T09:33:30;9.65;;;2.63;;
67108;SDS011;54027;50.786;7.058;2024-02-16T09:35:56;7.70;;;2.88;;
67108;SDS011;54027;50.786;7.058;2024-02-16T09:38:21;8.93;;;3.00;;
67108;SDS011;54027;50.786;7.058;2024-02-16T09:40:46;4.53;;;2.35;;
67108;SDS011;54027;50.786;7.058;2024-02-16T09:43:28;6.20;;;2.72;;
67108;SDS011;54027;50.786;7.058;2024-02-16T09:45:55;7.93;;;2.70;;
67108;SDS011;54027;50.786;7.058;2024-02-16T09:48:21;5.80;;;2.58;;
67108;SDS011;54027;50.786;7.058;2024-02-16T09:50:48;4.43;;;2.63;;
67108;SDS011;54027;50.786;7.058;2024-02-16T09:53:16;7.32;;;2.65;;
67108;SDS011;54027;50.786;7.058;2024-02-16T09:55:43;4.70;;;2.72;;
67108;SDS011;54027;50.786;7.058;2024-02-16T09:58:09;9.57;;;2.67;;
67108;SDS011;54027;50.786;7.058;2024-02-16T10:00:41;7.00;;;3.05;;
67108;SDS011;54027;50.786;7.058;2024-02-16T10:03:07;10.25;;;3.53;;
67108;SDS011;54027;50.786;7.058;2024-02-16T10:05:35;6.88;;;3.60;;
67108;SDS011;54027;50.786;7.058;2024-02-16T10:08:10;5.68;;;3.25;;
67108;SDS011;54027;50.786;7.058;2024-02-16T10:10:36;4.68;;;2.88;;
67108;SDS011;54027;50.786;7.058;2024-02-16T10:13:05;6.28;;;3.05;;
67108;SDS011;54027;50.786;7.058;2024-02-16T10:15:31;10.23;;;2.95;;
67108;SDS011;54027;50.786;7.058;2024-02-16T10:18:04;6.93;;;3.45;;
67108;SDS011;54027;50.786;7.058;2024-02-16T10:20:31;5.57;;;3.60;;
67108;SDS011;54027;50.786;7.058;2024-02-16T10:23:08;5.82;;;3.25;;
67108;SDS011;54027;50.786;7.058;2024-02-16T10:25:35;10.15;;;3.83;;
67108;SDS011;54027;50.786;7.058;2024-02-16T10:28:05;6.35;;;3.20;;
67108;SDS011;54027;50.786;7.058;2024-02-16T10:30:34;9.50;;;3.30;;
67108;SDS011;54027;50.786;7.058;2024-02-16T10:33:02;7.97;;;3.05;;
67108;SDS011;54027;50.786;7.058;2024-02-16T10:35:28;6.63;;;3.80;;
67108;SDS011;54027;50.786;7.058;2024-02-16T10:37:55;6.53;;;2.90;;
67108;SDS011;54027;50.786;7.058;2024-02-16T10:40:22;9.60;;;3.35;;
67108;SDS011;54027;50.786;7.058;2024-02-16T10:42:49;6.55;;;3.30;;
67108;SDS011;54027;50.786;7.058;2024-02-16T10:45:16;9.10;;;3.45;;
67108;SDS011;54027;50.786;7.058;2024-02-16T10:47:43;7.22;;;3.28;;
67108;SDS011;54027;50.786;7.058;2024-02-16T10:50:09;7.18;;;3.20;;
67108;SDS011;54027;50.786;7.058;2024-02-16T10:52:35;5.35;;;2.70;;
67108;SDS011;54027;50.786;7.058;2024-02-16T10:55:04;6.75;;;2.97;;
67108;SDS011;54027;50.786;7.058;2024-02-16T10:57:30;6.53;;;3.42;;
67108;SDS011;54027;50.786;7.058;2024-02-16T10:59:58;5.75;;;2.80;;
67108;SDS011;54027;50.786;7.058;2024-02-16T11:02:24;6.47;;;3.20;;
67108;SDS011;54027;50.786;7.058;2024-02-16T11:04:51;6.72;;;3.28;;
67108;SDS011;54027;50.786;7.058;2024-02-16T11:07:17;9.93;;;3.03;;
67108;SDS011;54027;50.786;7.058;2024-02-16T11:09:44;7.75;;;3.47;;
67108;SDS011;54027;50.786;7.058;2024-02-16T11:12:12;7.03;;;3.30;;
67108;SDS011;54027;50.786;7.058;2024-02-16T11:14:42;6.35;;;3.55;;
67108;SDS011;54027;50.786;7.058;2024-02-16T11:17:10;9.30;;;3.47;;
67108;SDS011;54027;50.786;7.058;2024-02-16T11:19:36;6.45;;;3.05;;
67108;SDS011;54027;50.786;7.058;2024-02-16T11:22:05;9.63;;;3.47;;
67108;SDS011;54027;50.786;7.058;2024-02-16T11:24:37;7.97;;;3.40;;
67108;SDS011;54027;50.786;7.058;2024-02-16T11:27:07;6.32;;;3.03;;
67108;SDS011;54027;50.786;7.058;2024-02-16T11:29:37;8.73;;;3.35;;
67108;SDS011;54027;50.786;7.058;2024-02-16T11:32:06;5.43;;;3.35;;
67108;SDS011;54027;50.786;7.058;2024-02-16T11:34:33;7.07;;;3.40;;
67108;SDS011;54027;50.786;7.058;2024-02-16T11:36:59;9.95;;;3.08;;
67108;SDS011;54027;50.786;7.058;2024-02-16T11:39:26;7.68;;;3.50;;
67108;SDS011;54027;50.786;7.058;2024-02-16T11:42:02;8.02;;;3.03;;
67108;SDS011;54027;50.786;7.058;2024-02-16T11:44:33;6.22;;;2.80;;
67108;SDS011;54027;50.786;7.058;2024-02-16T11:47:00;5.90;;;3.00;;
67108;SDS011;54027;50.786;7.058;2024-02-16T11:49:28;7.25;;;2.72;;
67108;SDS011;54027;50.786;7.058;2024-02-16T11:51:55;5.15;;;3.20;;
67108;SDS011;54027;50.786;7.058;2024-02-16T11:54:21;6.00;;;3.22;;
67108;SDS011;54027;50.786;7.058;2024-02-16T11:56:47;7.28;;;2.90;;
67108;SDS011;54027;50.786;7.058;2024-02-16T11:59:16;6.85;;;3.30;;
67108;SDS011;54027;50.786;7.058;2024-02-16T12:01:49;5.85;;;2.80;;
67108;SDS011;54027;50.786;7.058;2024-02-16T12:04:19;7.53;;;2.72;;
67108;SDS011;54027;50.786;7.058;2024-02-16T12:06:54;8.45;;;3.45;;
67108;SDS011;54027;50.786;7.058;2024-02-16T12:09:21;9.32;;;3.60;;
67108;SDS011;54027;50.786;7.058;2024-02-16T12:11:47;6.68;;;3.25;;
67108;SDS011;54027;50.786;7.058;2024-02-16T12:14:14;6.22;;;3.40;;
67108;SDS011;54027;50.786;7.058;2024-02-16T12:16:41;7.75;;;3.03;;
67108;SDS011;54027;50.786;7.058;2024-02-16T12:19:06;5.45;;;3.25;;
67108;SDS011;54027;50.786;7.058;2024-02-16T12:21:32;8.00;;;3.85;;
67108;SDS011;54027;50.786;7.058;2024-02-16T12:23:58;7.55;;;3.80;;
67108;SDS011;54027;50.786;7.058;2024-02-16T12:26:24;8.93;;;4.15;;
67108;SDS011;54027;50.786;7.058;2024-02-16T12:28:49;7.22;;;3.53;;
67108;SDS011;54027;50.786;7.058;2024-02-16T12:31:21;8.38;;;3.97;;
67108;SDS011;54027;50.786;7.058;2024-02-16T12:33:47;9.23;;;3.90;;
67108;SDS011;54027;50.786;7.058;2024-02-16T12:36:13;7.22;;;3.45;;
67108;SDS011;54027;50.786;7.058;2024-02-16T12:38:39;5.30;;;3.83;;
67108;SDS011;54027;50.786;7.058;2024-02-16T12:41:05;5.57;;;3.47;;
67108;SDS011;54027;50.786;7.058;2024-02-16T12:43:32;7.43;;;3.60;;
67108;SDS011;54027;50.786;7.058;2024-02-16T12:45:57;6.45;;;3.83;;
67108;SDS011;54027;50.786;7.058;2024-02-16T12:48:26;12.82;;;3.85;;
67108;SDS011;54027;50.786;7.058;2024-02-16T12:50:52;7.13;;;3.25;;
67108;SDS011;54027;50.786;7.058;2024-02-16T12:53:17;5.35;;;3.10;;
67108;SDS011;54027;50.786;7.058;2024-02-16T12:55:43;7.72;;;3.17;;
67108;SDS011;54027;50.786;7.058;2024-02-16T12:58:09;5.75;;;3.10;;
67108;SDS011;54027;50.786;7.058;2024-02-16T13:00:34;6.05;;;3.33;;
67108;SDS011;54027;50.786;7.058;2024-02-16T13:02:59;5.95;;;2.78;;
67108;SDS011;54027;50.786;7.058;2024-02-16T13:05:25;9.63;;;3.80;;
67108;SDS011;54027;50.786;7.058;2024-02-16T13:07:50;10.35;;;3.70;;
67108;SDS011;54027;50.786;7.058;2024-02-16T13:10:16;7.13;;;2.95;;
67108;SDS011;54027;50.786;7.058;2024-02-16T13:12:41;5.22;;;2.88;;
67108;SDS011;54027;50.786;7.058;2024-02-16T13:15:08;6.75;;;3.75;;
67108;SDS011;54027;50.786;7.058;2024-02-16T13:17:33;9.00;;;3.88;;
67108;SDS011;54027;50.786;7.058;2024-02-16T13:19:59;5.63;;;3.30;;
67108;SDS011;54027;50.786;7.058;2024-02-16T13:22:32;5.05;;;3.05;;
67108;SDS011;54027;50.786;7.058;2024-02-16T13:25:01;5.65;;;3.63;;
67108;SDS011;54027;50.786;7.058;2024-02-16T13:27:28;5.43;;;3.00;;
67108;SDS011;54027;50.786;7.058;2024-02-16T13:29:54;6.72;;;3.65;;
67108;SDS011;54027;50.786;7.058;2024-02-16T13:32:19;6.88;;;3.78;;
67108;SDS011;54027;50.786;7.058;2024-02-16T13:34:44;10.30;;;4.05;;
67108;SDS011;54027;50.786;7.058;2024-02-16T13:37:10;8.93;;;4.60;;
67108;SDS011;54027;50.786;7.058;2024-02-16T13:39:36;8.68;;;4.13;;
67108;SDS011;54027;50.786;7.058;2024-02-16T13:42:01;8.75;;;4.75;;
67108;SDS011;54027;50.786;7.058;2024-02-16T13:44:26;9.45;;;4.57;;
67108;SDS011;54027;50.786;7.058;2024-02-16T13:46:52;6.43;;;4.38;;
67108;SDS011;54027;50.786;7.058;2024-02-16T13:49:17;9.38;;;4.65;;
67108;SDS011;54027;50.786;7.058;2024-02-16T13:51:43;4.72;;;3.50;;
67108;SDS011;54027;50.786;7.058;2024-02-16T13:54:10;8.88;;;4.30;;
67108;SDS011;54027;50.786;7.058;2024-02-16T13:56:35;8.60;;;3.72;;
67108;SDS011;54027;50.786;7.058;2024-02-16T13:59:02;7.47;;;4.20;;
67108;SDS011;54027;50.786;7.058;2024-02-16T14:01:28;6.38;;;3.47;;
67108;SDS011;54027;50.786;7.058;2024-02-16T14:03:54;7.63;;;3.72;;
67108;SDS011;54027;50.786;7.058;2024-02-16T14:06:19;9.15;;;3.92;;
67108;SDS011;54027;50.786;7.058;2024-02-16T14:08:45;11.52;;;4.63;;
67108;SDS011;54027;50.786;7.058;2024-02-16T14:11:12;9.55;;;4.00;;
67108;SDS011;54027;50.786;7.058;2024-02-16T14:13:38;7.60;;;3.92;;
67108;SDS011;54027;50.786;7.058;2024-02-16T14:16:04;10.23;;;3.70;;
67108;SDS011;54027;50.786;7.058;2024-02-16T14:18:29;8.57;;;4.30;;
67108;SDS011;54027;50.786;7.058;2024-02-16T14:20:55;9.15;;;5.93;;
67108;SDS011;54027;50.786;7.058;2024-02-16T14:23:20;7.57;;;4.32;;
67108;SDS011;54027;50.786;7.058;2024-02-16T14:25:45;7.63;;;3.97;;
67108;SDS011;54027;50.786;7.058;2024-02-16T14:28:12;6.90;;;4.35;;
67108;SDS011;54027;50.786;7.058;2024-02-16T14:30:37;7.80;;;4.43;;
67108;SDS011;54027;50.786;7.058;2024-02-16T14:33:04;11.65;;;4.13;;
67108;SDS011;54027;50.786;7.058;2024-02-16T14:35:30;6.13;;;4.07;;
67108;SDS011;54027;50.786;7.058;2024-02-16T14:37:56;7.43;;;3.83;;
67108;SDS011;54027;50.786;7.058;2024-02-16T14:40:23;5.97;;;3.97;;
67108;SDS011;54027;50.786;7.058;2024-02-16T14:42:48;7.28;;;3.90;;
67108;SDS011;54027;50.786;7.058;2024-02-16T14:45:14;6.38;;;3.78;;